sensor_id;sensor_type;location;lat;lon;timestamp;temperature;humidity
26541;DHT22;14206;50.202;10.948;2022-12-04T00:01:20;2.90;96.60
26541;DHT22;14206;50.202;10.948;2022-12-04T00:03:54;2.90;96.60
26541;DHT22;14206;50.202;10.948;2022-12-04T00:09:54;2.90;96.60
26541;DHT22;14206;50.202;10.948;2022-12-04T00:12:41;2.90;96.60
26541;DHT22;14206;50.202;10.948;2022-12-04T00:15:21;2.90;96.60
26541;DHT22;14206;50.202;10.948;2022-12-04T00:17:53;2.90;96.60
26541;DHT22;14206;50.202;10.948;2022-12-04T00:20:20;2.90;96.60
26541;DHT22;14206;50.202;10.948;2022-12-04T00:22:48;2.90;96.60
26541;DHT22;14206;50.202;10.948;2022-12-04T00:25:15;2.90;96.60
26541;DHT22;14206;50.202;10.948;2022-12-04T00:27:42;2.90;96.60
26541;DHT22;14206;50.202;10.948;2022-12-04T00:30:09;2.90;96.60
26541;DHT22;14206;50.202;10.948;2022-12-04T00:32:36;2.90;96.60
26541;DHT22;14206;50.202;10.948;2022-12-04T00:35:03;2.90;96.60
26541;DHT22;14206;50.202;10.948;2022-12-04T00:37:31;2.90;96.60
26541;DHT22;14206;50.202;10.948;2022-12-04T00:39:58;2.90;96.60
26541;DHT22;14206;50.202;10.948;2022-12-04T00:42:25;2.90;96.60
26541;DHT22;14206;50.202;10.948;2022-12-04T00:44:52;2.90;96.60
26541;DHT22;14206;50.202;10.948;2022-12-04T00:47:19;2.80;96.60
26541;DHT22;14206;50.202;10.948;2022-12-04T00:49:46;2.90;96.60
26541;DHT22;14206;50.202;10.948;2022-12-04T00:52:13;2.90;96.60
26541;DHT22;14206;50.202;10.948;2022-12-04T00:54:40;2.80;96.60
26541;DHT22;14206;50.202;10.948;2022-12-04T00:57:07;2.80;96.60
26541;DHT22;14206;50.202;10.948;2022-12-04T00:59:33;2.80;96.60
26541;DHT22;14206;50.202;10.948;2022-12-04T01:02:02;2.80;96.60
26541;DHT22;14206;50.202;10.948;2022-12-04T01:04:28;2.80;96.60
26541;DHT22;14206;50.202;10.948;2022-12-04T01:06:55;2.80;96.60
26541;DHT22;14206;50.202;10.948;2022-12-04T01:09:30;2.90;96.60
26541;DHT22;14206;50.202;10.948;2022-12-04T01:11:57;2.90;96.60
26541;DHT22;14206;50.202;10.948;2022-12-04T01:14:24;2.90;96.60
26541;DHT22;14206;50.202;10.948;2022-12-04T01:16:51;2.90;96.60
26541;DHT22;14206;50.202;10.948;2022-12-04T01:19:17;2.90;96.60
26541;DHT22;14206;50.202;10.948;2022-12-04T01:21:44;2.90;96.60
26541;DHT22;14206;50.202;10.948;2022-12-04T01:24:11;2.80;96.60
26541;DHT22;14206;50.202;10.948;2022-12-04T01:26:38;2.90;96.60
26541;DHT22;14206;50.202;10.948;2022-12-04T01:29:05;2.80;96.60
26541;DHT22;14206;50.202;10.948;2022-12-04T01:31:31;2.90;96.60
26541;DHT22;14206;50.202;10.948;2022-12-04T01:33:58;2.90;96.60
26541;DHT22;14206;50.202;10.948;2022-12-04T01:36:26;2.90;96.60
26541;DHT22;14206;50.202;10.948;2022-12-04T01:38:54;2.90;96.60
26541;DHT22;14206;50.202;10.948;2022-12-04T01:41:24;2.80;96.60
26541;DHT22;14206;50.202;10.948;2022-12-04T01:46:38;2.90;96.60
26541;DHT22;14206;50.202;10.948;2022-12-04T01:51:52;2.90;96.60
26541;DHT22;14206;50.202;10.948;2022-12-04T01:54:23;2.90;96.60
26541;DHT22;14206;50.202;10.948;2022-12-04T01:57:02;2.90;96.60
26541;DHT22;14206;50.202;10.948;2022-12-04T01:59:33;2.90;96.60
26541;DHT22;14206;50.202;10.948;2022-12-04T02:02:08;2.80;96.60
26541;DHT22;14206;50.202;10.948;2022-12-04T02:04:37;2.80;96.60
26541;DHT22;14206;50.202;10.948;2022-12-04T02:07:05;2.80;96.60
26541;DHT22;14206;50.202;10.948;2022-12-04T02:09:33;2.80;96.60
26541;DHT22;14206;50.202;10.948;2022-12-04T02:18:05;2.70;96.60
26541;DHT22;14206;50.202;10.948;2022-12-04T02:23:46;2.70;96.60
26541;DHT22;14206;50.202;10.948;2022-12-04T02:31:56;2.80;96.60
26541;DHT22;14206;50.202;10.948;2022-12-04T02:34:28;2.80;96.60
26541;DHT22;14206;50.202;10.948;2022-12-04T02:37:03;2.80;96.60
26541;DHT22;14206;50.202;10.948;2022-12-04T02:39:55;2.80;96.60
26541;DHT22;14206;50.202;10.948;2022-12-04T02:45:26;2.80;96.60
26541;DHT22;14206;50.202;10.948;2022-12-04T02:47:58;2.80;96.60
26541;DHT22;14206;50.202;10.948;2022-12-04T02:50:27;2.80;96.60
26541;DHT22;14206;50.202;10.948;2022-12-04T02:53:18;2.80;96.60
26541;DHT22;14206;50.202;10.948;2022-12-04T02:55:52;2.90;96.60
26541;DHT22;14206;50.202;10.948;2022-12-04T02:58:30;2.90;96.60
26541;DHT22;14206;50.202;10.948;2022-12-04T03:01:00;3.00;96.60
26541;DHT22;14206;50.202;10.948;2022-12-04T03:03:29;3.00;96.60
26541;DHT22;14206;50.202;10.948;2022-12-04T03:06:05;3.00;96.60
26541;DHT22;14206;50.202;10.948;2022-12-04T03:08:45;3.00;96.60
26541;DHT22;14206;50.202;10.948;2022-12-04T03:11:13;2.90;96.60
26541;DHT22;14206;50.202;10.948;2022-12-04T03:16:21;3.00;96.60
26541;DHT22;14206;50.202;10.948;2022-12-04T03:18:54;3.00;96.60
26541;DHT22;14206;50.202;10.948;2022-12-04T03:21:25;3.00;96.60
26541;DHT22;14206;50.202;10.948;2022-12-04T03:24:02;3.10;96.60
26541;DHT22;14206;50.202;10.948;2022-12-04T03:26:36;3.10;96.60
26541;DHT22;14206;50.202;10.948;2022-12-04T03:29:18;3.10;96.60
26541;DHT22;14206;50.202;10.948;2022-12-04T03:31:50;3.10;96.60
26541;DHT22;14206;50.202;10.948;2022-12-04T03:34:27;3.10;96.60
26541;DHT22;14206;50.202;10.948;2022-12-04T03:37:02;3.20;96.60
26541;DHT22;14206;50.202;10.948;2022-12-04T03:39:36;3.20;96.60
26541;DHT22;14206;50.202;10.948;2022-12-04T03:42:17;3.30;96.60
26541;DHT22;14206;50.202;10.948;2022-12-04T03:45:02;3.30;96.60
26541;DHT22;14206;50.202;10.948;2022-12-04T03:48:18;3.40;96.60
26541;DHT22;14206;50.202;10.948;2022-12-04T03:50:51;3.40;96.60
26541;DHT22;14206;50.202;10.948;2022-12-04T03:53:34;3.40;96.60
26541;DHT22;14206;50.202;10.948;2022-12-04T03:56:14;3.40;96.60
26541;DHT22;14206;50.202;10.948;2022-12-04T03:58:46;3.40;96.60
26541;DHT22;14206;50.202;10.948;2022-12-04T04:01:14;3.40;96.60
26541;DHT22;14206;50.202;10.948;2022-12-04T04:03:47;3.40;96.60
26541;DHT22;14206;50.202;10.948;2022-12-04T04:06:22;3.40;96.60
26541;DHT22;14206;50.202;10.948;2022-12-04T04:08:54;3.40;96.60
26541;DHT22;14206;50.202;10.948;2022-12-04T04:11:33;3.40;96.60
26541;DHT22;14206;50.202;10.948;2022-12-04T04:14:01;3.40;96.60
26541;DHT22;14206;50.202;10.948;2022-12-04T04:16:57;3.40;96.60
26541;DHT22;14206;50.202;10.948;2022-12-04T04:19:48;3.40;96.60
26541;DHT22;14206;50.202;10.948;2022-12-04T04:22:34;3.40;96.60
26541;DHT22;14206;50.202;10.948;2022-12-04T04:25:23;3.40;96.60
26541;DHT22;14206;50.202;10.948;2022-12-04T04:27:52;3.40;96.60
26541;DHT22;14206;50.202;10.948;2022-12-04T04:30:20;3.40;96.60
26541;DHT22;14206;50.202;10.948;2022-12-04T04:33:05;3.40;96.60
26541;DHT22;14206;50.202;10.948;2022-12-04T04:35:53;3.40;96.60
26541;DHT22;14206;50.202;10.948;2022-12-04T04:38:38;3.40;96.60
26541;DHT22;14206;50.202;10.948;2022-12-04T04:41:19;3.40;96.60
26541;DHT22;14206;50.202;10.948;2022-12-04T04:44:03;3.40;96.60
26541;DHT22;14206;50.202;10.948;2022-12-04T04:46:32;3.40;96.60
26541;DHT22;14206;50.202;10.948;2022-12-04T04:49:02;3.40;96.60
26541;DHT22;14206;50.202;10.948;2022-12-04T04:51:33;3.40;96.60
26541;DHT22;14206;50.202;10.948;2022-12-04T04:54:05;3.40;96.60
26541;DHT22;14206;50.202;10.948;2022-12-04T04:56:42;3.40;96.60
26541;DHT22;14206;50.202;10.948;2022-12-04T04:59:10;3.40;96.60
26541;DHT22;14206;50.202;10.948;2022-12-04T05:01:38;3.40;96.60
26541;DHT22;14206;50.202;10.948;2022-12-04T05:04:06;3.40;96.60
26541;DHT22;14206;50.202;10.948;2022-12-04T05:06:33;3.40;96.60
26541;DHT22;14206;50.202;10.948;2022-12-04T05:09:01;3.40;96.60
26541;DHT22;14206;50.202;10.948;2022-12-04T05:11:28;3.40;96.60
26541;DHT22;14206;50.202;10.948;2022-12-04T05:13:55;3.40;96.60
26541;DHT22;14206;50.202;10.948;2022-12-04T05:16:22;3.40;96.60
26541;DHT22;14206;50.202;10.948;2022-12-04T05:18:49;3.40;96.60
26541;DHT22;14206;50.202;10.948;2022-12-04T05:21:35;3.50;96.60
26541;DHT22;14206;50.202;10.948;2022-12-04T05:24:02;3.50;96.60
26541;DHT22;14206;50.202;10.948;2022-12-04T05:26:29;3.50;96.60
26541;DHT22;14206;50.202;10.948;2022-12-04T05:28:56;3.60;96.60
26541;DHT22;14206;50.202;10.948;2022-12-04T05:31:22;3.60;96.60
26541;DHT22;14206;50.202;10.948;2022-12-04T05:33:49;3.60;96.60
26541;DHT22;14206;50.202;10.948;2022-12-04T05:36:16;3.60;96.60
26541;DHT22;14206;50.202;10.948;2022-12-04T05:38:44;3.70;96.60
26541;DHT22;14206;50.202;10.948;2022-12-04T05:41:10;3.70;96.60
26541;DHT22;14206;50.202;10.948;2022-12-04T05:43:37;3.70;96.60
26541;DHT22;14206;50.202;10.948;2022-12-04T05:46:06;3.70;96.60
26541;DHT22;14206;50.202;10.948;2022-12-04T05:48:33;3.70;96.60
26541;DHT22;14206;50.202;10.948;2022-12-04T05:51:05;3.80;96.60
26541;DHT22;14206;50.202;10.948;2022-12-04T05:53:33;3.80;96.60
26541;DHT22;14206;50.202;10.948;2022-12-04T05:56:01;3.80;96.60
26541;DHT22;14206;50.202;10.948;2022-12-04T05:58:28;3.80;96.60
26541;DHT22;14206;50.202;10.948;2022-12-04T06:00:55;3.80;96.60
26541;DHT22;14206;50.202;10.948;2022-12-04T06:03:22;3.90;96.60
26541;DHT22;14206;50.202;10.948;2022-12-04T06:05:49;3.90;96.60
26541;DHT22;14206;50.202;10.948;2022-12-04T06:08:16;3.90;96.60
26541;DHT22;14206;50.202;10.948;2022-12-04T06:10:43;3.90;96.60
26541;DHT22;14206;50.202;10.948;2022-12-04T06:13:10;3.90;96.60
26541;DHT22;14206;50.202;10.948;2022-12-04T06:15:38;3.80;96.60
26541;DHT22;14206;50.202;10.948;2022-12-04T06:18:05;3.90;96.60
26541;DHT22;14206;50.202;10.948;2022-12-04T06:20:33;3.90;96.60
26541;DHT22;14206;50.202;10.948;2022-12-04T06:23:00;3.90;96.60
26541;DHT22;14206;50.202;10.948;2022-12-04T06:25:27;3.90;96.60
26541;DHT22;14206;50.202;10.948;2022-12-04T06:27:54;3.90;96.60
26541;DHT22;14206;50.202;10.948;2022-12-04T06:30:21;3.90;96.60
26541;DHT22;14206;50.202;10.948;2022-12-04T06:32:48;3.90;96.60
26541;DHT22;14206;50.202;10.948;2022-12-04T06:35:15;3.90;96.60
26541;DHT22;14206;50.202;10.948;2022-12-04T06:37:41;3.90;96.60
26541;DHT22;14206;50.202;10.948;2022-12-04T06:40:09;3.90;96.60
26541;DHT22;14206;50.202;10.948;2022-12-04T06:42:36;3.90;96.60
26541;DHT22;14206;50.202;10.948;2022-12-04T06:45:03;3.90;96.60
26541;DHT22;14206;50.202;10.948;2022-12-04T06:47:29;3.90;96.60
26541;DHT22;14206;50.202;10.948;2022-12-04T06:49:56;3.90;96.60
26541;DHT22;14206;50.202;10.948;2022-12-04T06:52:23;3.90;96.60
26541;DHT22;14206;50.202;10.948;2022-12-04T06:54:50;3.90;96.60
26541;DHT22;14206;50.202;10.948;2022-12-04T06:57:17;4.00;96.60
26541;DHT22;14206;50.202;10.948;2022-12-04T06:59:44;4.00;96.60
26541;DHT22;14206;50.202;10.948;2022-12-04T07:02:11;4.00;96.60
26541;DHT22;14206;50.202;10.948;2022-12-04T07:04:38;4.00;96.60
26541;DHT22;14206;50.202;10.948;2022-12-04T07:07:07;3.90;96.60
26541;DHT22;14206;50.202;10.948;2022-12-04T07:09:34;3.90;96.60
26541;DHT22;14206;50.202;10.948;2022-12-04T07:12:01;3.90;96.60
26541;DHT22;14206;50.202;10.948;2022-12-04T07:14:28;3.90;96.60
26541;DHT22;14206;50.202;10.948;2022-12-04T07:16:54;3.90;96.60
26541;DHT22;14206;50.202;10.948;2022-12-04T07:19:21;3.90;96.60
26541;DHT22;14206;50.202;10.948;2022-12-04T07:21:48;3.90;96.60
26541;DHT22;14206;50.202;10.948;2022-12-04T07:24:16;3.90;96.60
26541;DHT22;14206;50.202;10.948;2022-12-04T07:26:43;4.00;96.60
26541;DHT22;14206;50.202;10.948;2022-12-04T07:29:10;4.00;96.60
26541;DHT22;14206;50.202;10.948;2022-12-04T07:31:37;4.00;96.60
26541;DHT22;14206;50.202;10.948;2022-12-04T07:34:04;4.00;96.60
26541;DHT22;14206;50.202;10.948;2022-12-04T07:36:31;4.00;96.60
26541;DHT22;14206;50.202;10.948;2022-12-04T07:38:58;4.10;96.60
26541;DHT22;14206;50.202;10.948;2022-12-04T07:41:25;4.10;96.60
26541;DHT22;14206;50.202;10.948;2022-12-04T07:43:53;4.10;96.60
26541;DHT22;14206;50.202;10.948;2022-12-04T07:46:22;4.10;96.60
26541;DHT22;14206;50.202;10.948;2022-12-04T07:48:50;4.10;96.60
26541;DHT22;14206;50.202;10.948;2022-12-04T07:51:22;4.10;96.60
26541;DHT22;14206;50.202;10.948;2022-12-04T07:53:50;4.10;96.60
26541;DHT22;14206;50.202;10.948;2022-12-04T07:56:19;4.10;96.60
26541;DHT22;14206;50.202;10.948;2022-12-04T07:58:46;4.10;96.60
26541;DHT22;14206;50.202;10.948;2022-12-04T08:01:18;4.20;96.60
26541;DHT22;14206;50.202;10.948;2022-12-04T08:03:47;4.20;96.60
26541;DHT22;14206;50.202;10.948;2022-12-04T08:06:17;4.20;96.60
26541;DHT22;14206;50.202;10.948;2022-12-04T08:08:44;4.20;96.60
26541;DHT22;14206;50.202;10.948;2022-12-04T08:11:14;4.20;96.60
26541;DHT22;14206;50.202;10.948;2022-12-04T08:13:41;4.20;96.60
26541;DHT22;14206;50.202;10.948;2022-12-04T08:16:09;4.20;96.60
26541;DHT22;14206;50.202;10.948;2022-12-04T08:18:37;4.20;96.60
26541;DHT22;14206;50.202;10.948;2022-12-04T08:21:11;4.30;96.60
26541;DHT22;14206;50.202;10.948;2022-12-04T08:23:40;4.30;96.60
26541;DHT22;14206;50.202;10.948;2022-12-04T08:26:09;4.30;96.60
26541;DHT22;14206;50.202;10.948;2022-12-04T08:28:36;4.30;96.60
26541;DHT22;14206;50.202;10.948;2022-12-04T08:31:06;4.40;96.60
26541;DHT22;14206;50.202;10.948;2022-12-04T08:33:34;4.40;96.60
26541;DHT22;14206;50.202;10.948;2022-12-04T08:36:01;4.50;96.60
26541;DHT22;14206;50.202;10.948;2022-12-04T08:38:31;4.50;96.60
26541;DHT22;14206;50.202;10.948;2022-12-04T08:41:03;4.60;96.60
26541;DHT22;14206;50.202;10.948;2022-12-04T08:43:30;4.70;96.60
26541;DHT22;14206;50.202;10.948;2022-12-04T08:45:58;4.70;96.60
26541;DHT22;14206;50.202;10.948;2022-12-04T08:48:26;4.90;96.60
26541;DHT22;14206;50.202;10.948;2022-12-04T08:50:53;5.10;96.60
26541;DHT22;14206;50.202;10.948;2022-12-04T08:53:22;5.30;95.80
26541;DHT22;14206;50.202;10.948;2022-12-04T08:55:49;5.50;95.70
26541;DHT22;14206;50.202;10.948;2022-12-04T08:58:16;5.60;94.40
26541;DHT22;14206;50.202;10.948;2022-12-04T09:00:43;5.80;94.40
26541;DHT22;14206;50.202;10.948;2022-12-04T09:03:16;6.00;93.40
26541;DHT22;14206;50.202;10.948;2022-12-04T09:05:44;6.00;93.10
26541;DHT22;14206;50.202;10.948;2022-12-04T09:08:15;6.10;92.80
26541;DHT22;14206;50.202;10.948;2022-12-04T09:10:43;6.10;93.00
26541;DHT22;14206;50.202;10.948;2022-12-04T09:13:09;6.20;92.50
26541;DHT22;14206;50.202;10.948;2022-12-04T09:15:39;6.40;92.70
26541;DHT22;14206;50.202;10.948;2022-12-04T09:18:07;6.50;91.90
26541;DHT22;14206;50.202;10.948;2022-12-04T09:20:35;6.60;91.30
26541;DHT22;14206;50.202;10.948;2022-12-04T09:23:03;6.80;90.90
26541;DHT22;14206;50.202;10.948;2022-12-04T09:25:34;6.70;90.50
26541;DHT22;14206;50.202;10.948;2022-12-04T09:28:02;6.60;91.20
26541;DHT22;14206;50.202;10.948;2022-12-04T09:30:30;6.40;91.10
26541;DHT22;14206;50.202;10.948;2022-12-04T09:32:57;6.30;91.90
26541;DHT22;14206;50.202;10.948;2022-12-04T09:35:24;6.20;91.90
26541;DHT22;14206;50.202;10.948;2022-12-04T09:37:50;6.20;92.50
26541;DHT22;14206;50.202;10.948;2022-12-04T09:40:44;6.20;92.80
26541;DHT22;14206;50.202;10.948;2022-12-04T09:43:39;6.30;92.20
26541;DHT22;14206;50.202;10.948;2022-12-04T09:46:26;6.40;92.30
26541;DHT22;14206;50.202;10.948;2022-12-04T09:48:56;6.40;92.10
26541;DHT22;14206;50.202;10.948;2022-12-04T09:51:25;6.40;92.20
26541;DHT22;14206;50.202;10.948;2022-12-04T09:54:02;6.40;91.90
26541;DHT22;14206;50.202;10.948;2022-12-04T09:56:31;6.50;92.10
26541;DHT22;14206;50.202;10.948;2022-12-04T09:59:04;6.60;91.70
26541;DHT22;14206;50.202;10.948;2022-12-04T10:04:09;6.70;91.80
26541;DHT22;14206;50.202;10.948;2022-12-04T10:06:44;6.70;91.60
26541;DHT22;14206;50.202;10.948;2022-12-04T10:25:42;6.70;92.60
26541;DHT22;14206;50.202;10.948;2022-12-04T10:28:24;6.80;91.10
26541;DHT22;14206;50.202;10.948;2022-12-04T10:30:54;6.80;91.30
26541;DHT22;14206;50.202;10.948;2022-12-04T10:33:32;6.80;91.70
26541;DHT22;14206;50.202;10.948;2022-12-04T10:36:01;6.80;91.20
26541;DHT22;14206;50.202;10.948;2022-12-04T10:38:34;6.90;91.50
26541;DHT22;14206;50.202;10.948;2022-12-04T10:43:46;6.80;91.00
26541;DHT22;14206;50.202;10.948;2022-12-04T10:46:17;6.60;91.60
26541;DHT22;14206;50.202;10.948;2022-12-04T10:48:47;6.50;92.10
26541;DHT22;14206;50.202;10.948;2022-12-04T10:51:16;6.30;92.70
26541;DHT22;14206;50.202;10.948;2022-12-04T10:53:44;6.30;92.80
26541;DHT22;14206;50.202;10.948;2022-12-04T10:56:14;6.20;93.30
26541;DHT22;14206;50.202;10.948;2022-12-04T10:58:41;6.20;93.50
26541;DHT22;14206;50.202;10.948;2022-12-04T11:01:11;6.30;93.80
26541;DHT22;14206;50.202;10.948;2022-12-04T11:03:43;6.40;93.90
26541;DHT22;14206;50.202;10.948;2022-12-04T11:06:13;6.50;93.10
26541;DHT22;14206;50.202;10.948;2022-12-04T11:08:42;6.50;92.90
26541;DHT22;14206;50.202;10.948;2022-12-04T11:11:12;6.60;92.90
26541;DHT22;14206;50.202;10.948;2022-12-04T11:13:40;6.60;92.60
26541;DHT22;14206;50.202;10.948;2022-12-04T11:16:07;6.60;93.00
26541;DHT22;14206;50.202;10.948;2022-12-04T11:18:47;6.70;92.50
26541;DHT22;14206;50.202;10.948;2022-12-04T11:21:18;6.70;92.30
26541;DHT22;14206;50.202;10.948;2022-12-04T11:23:49;6.70;92.20
26541;DHT22;14206;50.202;10.948;2022-12-04T11:26:37;6.70;92.20
26541;DHT22;14206;50.202;10.948;2022-12-04T11:29:12;6.80;92.40
26541;DHT22;14206;50.202;10.948;2022-12-04T11:31:40;6.80;92.40
26541;DHT22;14206;50.202;10.948;2022-12-04T11:34:08;6.70;92.00
26541;DHT22;14206;50.202;10.948;2022-12-04T11:36:43;6.70;92.10
26541;DHT22;14206;50.202;10.948;2022-12-04T11:39:18;6.60;92.60
26541;DHT22;14206;50.202;10.948;2022-12-04T11:41:45;6.60;93.00
26541;DHT22;14206;50.202;10.948;2022-12-04T11:44:23;6.60;92.70
26541;DHT22;14206;50.202;10.948;2022-12-04T11:46:56;6.50;93.00
26541;DHT22;14206;50.202;10.948;2022-12-04T11:49:25;6.60;93.10
26541;DHT22;14206;50.202;10.948;2022-12-04T11:55:09;6.50;93.20
26541;DHT22;14206;50.202;10.948;2022-12-04T12:00:19;6.50;93.40
26541;DHT22;14206;50.202;10.948;2022-12-04T12:11:32;6.30;93.40
26541;DHT22;14206;50.202;10.948;2022-12-04T12:25:55;6.10;94.00
26541;DHT22;14206;50.202;10.948;2022-12-04T12:33:55;6.20;94.10
26541;DHT22;14206;50.202;10.948;2022-12-04T12:36:25;6.20;94.40
26541;DHT22;14206;50.202;10.948;2022-12-04T12:38:58;6.20;94.10
26541;DHT22;14206;50.202;10.948;2022-12-04T12:41:35;6.20;94.00
26541;DHT22;14206;50.202;10.948;2022-12-04T12:44:26;6.20;94.10
26541;DHT22;14206;50.202;10.948;2022-12-04T12:46:55;6.20;94.30
26541;DHT22;14206;50.202;10.948;2022-12-04T12:49:45;6.20;94.00
26541;DHT22;14206;50.202;10.948;2022-12-04T12:52:19;6.20;94.10
26541;DHT22;14206;50.202;10.948;2022-12-04T12:54:54;6.20;94.40
26541;DHT22;14206;50.202;10.948;2022-12-04T12:57:29;6.20;94.10
26541;DHT22;14206;50.202;10.948;2022-12-04T13:00:05;6.20;94.00
26541;DHT22;14206;50.202;10.948;2022-12-04T13:02:37;6.20;94.60
26541;DHT22;14206;50.202;10.948;2022-12-04T13:05:12;6.30;94.00
26541;DHT22;14206;50.202;10.948;2022-12-04T13:10:35;6.30;94.10
26541;DHT22;14206;50.202;10.948;2022-12-04T13:13:15;6.20;94.10
26541;DHT22;14206;50.202;10.948;2022-12-04T13:15:49;6.20;94.50
26541;DHT22;14206;50.202;10.948;2022-12-04T13:18:28;6.20;94.40
26541;DHT22;14206;50.202;10.948;2022-12-04T13:20:59;6.10;94.50
26541;DHT22;14206;50.202;10.948;2022-12-04T13:23:43;6.10;94.70
26541;DHT22;14206;50.202;10.948;2022-12-04T13:26:35;6.10;94.60
26541;DHT22;14206;50.202;10.948;2022-12-04T13:29:24;6.10;94.80
26541;DHT22;14206;50.202;10.948;2022-12-04T13:32:08;6.00;95.20
26541;DHT22;14206;50.202;10.948;2022-12-04T13:38:21;6.00;95.10
26541;DHT22;14206;50.202;10.948;2022-12-04T13:42:40;6.00;95.60
26541;DHT22;14206;50.202;10.948;2022-12-04T13:45:26;6.00;95.60
26541;DHT22;14206;50.202;10.948;2022-12-04T13:47:57;6.00;95.40
26541;DHT22;14206;50.202;10.948;2022-12-04T13:50:31;5.90;95.60
26541;DHT22;14206;50.202;10.948;2022-12-04T13:52:59;5.90;95.90
26541;DHT22;14206;50.202;10.948;2022-12-04T13:55:35;5.90;95.90
26541;DHT22;14206;50.202;10.948;2022-12-04T13:58:27;5.90;96.30
26541;DHT22;14206;50.202;10.948;2022-12-04T14:01:21;5.90;96.20
26541;DHT22;14206;50.202;10.948;2022-12-04T14:03:51;5.80;96.10
26541;DHT22;14206;50.202;10.948;2022-12-04T14:06:41;5.80;96.30
26541;DHT22;14206;50.202;10.948;2022-12-04T14:09:25;5.80;96.10
26541;DHT22;14206;50.202;10.948;2022-12-04T14:11:57;5.80;96.20
26541;DHT22;14206;50.202;10.948;2022-12-04T14:14:51;5.70;96.40
26541;DHT22;14206;50.202;10.948;2022-12-04T14:17:31;5.70;96.30
26541;DHT22;14206;50.202;10.948;2022-12-04T14:20:04;5.70;96.40
26541;DHT22;14206;50.202;10.948;2022-12-04T14:25:32;5.60;96.40
26541;DHT22;14206;50.202;10.948;2022-12-04T14:28:22;5.60;96.60
26541;DHT22;14206;50.202;10.948;2022-12-04T14:33:50;5.50;96.60
26541;DHT22;14206;50.202;10.948;2022-12-04T14:36:23;5.50;96.60
26541;DHT22;14206;50.202;10.948;2022-12-04T14:39:25;5.60;96.60
26541;DHT22;14206;50.202;10.948;2022-12-04T14:42:13;5.50;96.60
26541;DHT22;14206;50.202;10.948;2022-12-04T14:44:40;5.50;96.60
26541;DHT22;14206;50.202;10.948;2022-12-04T14:53:22;5.40;96.60
26541;DHT22;14206;50.202;10.948;2022-12-04T14:58:31;5.40;96.60
26541;DHT22;14206;50.202;10.948;2022-12-04T15:01:16;5.40;96.60
26541;DHT22;14206;50.202;10.948;2022-12-04T15:03:45;5.30;96.60
26541;DHT22;14206;50.202;10.948;2022-12-04T15:06:20;5.30;96.60
26541;DHT22;14206;50.202;10.948;2022-12-04T15:08:55;5.20;96.60
26541;DHT22;14206;50.202;10.948;2022-12-04T15:11:49;5.20;96.60
26541;DHT22;14206;50.202;10.948;2022-12-04T15:14:46;5.20;96.60
26541;DHT22;14206;50.202;10.948;2022-12-04T15:17:15;5.10;96.60
26541;DHT22;14206;50.202;10.948;2022-12-04T15:19:42;5.10;96.60
26541;DHT22;14206;50.202;10.948;2022-12-04T15:22:25;5.10;96.60
26541;DHT22;14206;50.202;10.948;2022-12-04T15:24:53;5.10;96.60
26541;DHT22;14206;50.202;10.948;2022-12-04T15:27:23;5.10;96.60
26541;DHT22;14206;50.202;10.948;2022-12-04T15:29:58;5.10;96.60
26541;DHT22;14206;50.202;10.948;2022-12-04T15:32:26;5.10;96.60
26541;DHT22;14206;50.202;10.948;2022-12-04T15:35:07;5.10;96.60
26541;DHT22;14206;50.202;10.948;2022-12-04T15:37:37;5.10;96.60
26541;DHT22;14206;50.202;10.948;2022-12-04T15:40:07;5.10;96.60
26541;DHT22;14206;50.202;10.948;2022-12-04T15:42:37;5.10;96.60
26541;DHT22;14206;50.202;10.948;2022-12-04T15:47:49;5.20;96.60
26541;DHT22;14206;50.202;10.948;2022-12-04T15:55:20;5.20;96.60
26541;DHT22;14206;50.202;10.948;2022-12-04T15:58:00;5.20;96.60
26541;DHT22;14206;50.202;10.948;2022-12-04T16:00:34;5.20;96.60
26541;DHT22;14206;50.202;10.948;2022-12-04T16:03:17;5.20;96.60
26541;DHT22;14206;50.202;10.948;2022-12-04T16:05:46;5.20;96.60
26541;DHT22;14206;50.202;10.948;2022-12-04T16:08:28;5.20;96.60
26541;DHT22;14206;50.202;10.948;2022-12-04T16:11:21;5.20;96.60
26541;DHT22;14206;50.202;10.948;2022-12-04T16:14:01;5.20;96.60
26541;DHT22;14206;50.202;10.948;2022-12-04T16:16:28;5.20;96.60
26541;DHT22;14206;50.202;10.948;2022-12-04T16:18:55;5.10;96.60
26541;DHT22;14206;50.202;10.948;2022-12-04T16:21:28;5.10;96.60
26541;DHT22;14206;50.202;10.948;2022-12-04T16:24:06;5.10;96.60
26541;DHT22;14206;50.202;10.948;2022-12-04T16:26:35;5.10;96.60
26541;DHT22;14206;50.202;10.948;2022-12-04T16:29:02;5.10;96.60
26541;DHT22;14206;50.202;10.948;2022-12-04T16:31:29;5.10;96.60
26541;DHT22;14206;50.202;10.948;2022-12-04T16:33:56;5.10;96.60
26541;DHT22;14206;50.202;10.948;2022-12-04T16:36:23;5.10;96.60
26541;DHT22;14206;50.202;10.948;2022-12-04T16:38:50;5.10;96.60
26541;DHT22;14206;50.202;10.948;2022-12-04T16:41:18;5.10;96.60
26541;DHT22;14206;50.202;10.948;2022-12-04T16:43:53;5.10;96.60
26541;DHT22;14206;50.202;10.948;2022-12-04T16:46:23;5.10;96.60
26541;DHT22;14206;50.202;10.948;2022-12-04T16:48:50;5.10;96.60
26541;DHT22;14206;50.202;10.948;2022-12-04T16:51:25;5.10;96.60
26541;DHT22;14206;50.202;10.948;2022-12-04T16:53:52;5.10;96.60
26541;DHT22;14206;50.202;10.948;2022-12-04T16:56:20;5.10;96.60
26541;DHT22;14206;50.202;10.948;2022-12-04T16:58:47;5.10;96.60
26541;DHT22;14206;50.202;10.948;2022-12-04T17:01:24;5.10;96.60
26541;DHT22;14206;50.202;10.948;2022-12-04T17:03:51;5.10;96.60
26541;DHT22;14206;50.202;10.948;2022-12-04T17:06:19;5.10;96.60
26541;DHT22;14206;50.202;10.948;2022-12-04T17:08:46;5.10;96.60
26541;DHT22;14206;50.202;10.948;2022-12-04T17:11:15;5.10;96.60
26541;DHT22;14206;50.202;10.948;2022-12-04T17:13:42;5.10;96.60
26541;DHT22;14206;50.202;10.948;2022-12-04T17:16:09;5.10;96.60
26541;DHT22;14206;50.202;10.948;2022-12-04T17:18:41;5.10;96.60
26541;DHT22;14206;50.202;10.948;2022-12-04T17:21:09;5.10;96.60
26541;DHT22;14206;50.202;10.948;2022-12-04T17:23:37;5.10;96.60
26541;DHT22;14206;50.202;10.948;2022-12-04T17:26:06;5.10;96.60
26541;DHT22;14206;50.202;10.948;2022-12-04T17:28:33;5.10;96.60
26541;DHT22;14206;50.202;10.948;2022-12-04T17:31:04;5.20;96.60
26541;DHT22;14206;50.202;10.948;2022-12-04T17:33:37;5.10;96.60
26541;DHT22;14206;50.202;10.948;2022-12-04T17:36:12;5.10;96.60
26541;DHT22;14206;50.202;10.948;2022-12-04T17:38:39;5.10;96.60
26541;DHT22;14206;50.202;10.948;2022-12-04T17:41:08;5.10;96.60
26541;DHT22;14206;50.202;10.948;2022-12-04T17:43:35;5.10;96.60
26541;DHT22;14206;50.202;10.948;2022-12-04T17:46:08;5.20;96.60
26541;DHT22;14206;50.202;10.948;2022-12-04T17:48:35;5.20;96.60
26541;DHT22;14206;50.202;10.948;2022-12-04T17:51:11;5.10;96.60
26541;DHT22;14206;50.202;10.948;2022-12-04T17:53:38;5.10;96.60